Time,TemperatureF,DewpointF,PressureIn,WindDirection,WindDirectionDegrees,WindSpeedMPH,WindSpeedGustMPH,Humidity,HourlyPrecipIn,Conditions,Clouds,dailyrainin,SoftwareType,DateUTC
2015-09-04 00:03:00,61.0,40.0,-100.00,WSW,240,6.0,9.0,47,-99.99,,,-99.99,,2015-09-04 06:03:00,
2015-09-04 00:13:00,60.0,41.0,-100.00,WSW,251,6.0,8.0,49,-99.99,,,-99.99,,2015-09-04 06:13:00,
2015-09-04 00:23:00,60.0,40.0,-100.00,WSW,256,5.0,9.0,48,-99.99,,,-99.99,,2015-09-04 06:23:00,
2015-09-04 00:34:00,61.0,40.0,-100.00,WSW,247,6.0,9.0,47,-99.99,,,-99.99,,2015-09-04 06:34:00,
2015-09-04 00:43:00,62.0,40.0,-100.00,WSW,246,5.0,7.0,43,-99.99,,,-99.99,,2015-09-04 06:43:00,
2015-09-04 00:53:00,59.0,40.0,-100.00,NNW,343,1.0,2.0,50,-99.99,,,-99.99,,2015-09-04 06:53:00,
2015-09-04 01:03:00,59.0,40.0,-100.00,NNE,13,2.0,4.0,50,-99.99,,,-99.99,,2015-09-04 07:03:00,
2015-09-04 01:12:00,59.0,40.0,-100.00,North,350,0.0,2.0,50,-99.99,,,-99.99,,2015-09-04 07:12:00,
2015-09-04 01:23:00,58.0,40.0,-100.00,West,267,2.0,4.0,52,-99.99,,,-99.99,,2015-09-04 07:23:00,
2015-09-04 01:33:00,61.0,40.0,-100.00,WSW,246,2.0,4.0,46,-99.99,,,-99.99,,2015-09-04 07:33:00,
2015-09-04 01:43:00,59.0,40.0,-100.00,SSW,195,2.0,4.0,48,-99.99,,,-99.99,,2015-09-04 07:43:00,
2015-09-04 01:53:00,59.0,41.0,-100.00,SW,224,9.0,19.0,50,-99.99,,,-99.99,,2015-09-04 07:53:00,
2015-09-04 02:03:00,58.0,41.0,-100.00,SW,230,11.0,17.0,53,-99.99,,,-99.99,,2015-09-04 08:03:00,
2015-09-04 02:12:00,57.0,41.0,-100.00,West,281,6.0,9.0,54,-99.99,,,-99.99,,2015-09-04 08:12:00,
2015-09-04 02:23:00,57.0,41.0,-100.00,NW,322,3.0,6.0,54,-99.99,,,-99.99,,2015-09-04 08:23:00,
2015-09-04 02:33:00,60.0,41.0,-100.00,NW,325,3.0,6.0,50,-99.99,,,-99.99,,2015-09-04 08:33:00,
2015-09-04 02:43:00,59.0,41.0,-100.00,NW,326,2.0,6.0,51,-99.99,,,-99.99,,2015-09-04 08:43:00,
2015-09-04 02:53:00,58.0,42.0,-100.00,WNW,288,7.0,21.0,55,-99.99,,,-99.99,,2015-09-04 08:53:00,
2015-09-04 03:03:00,60.0,45.0,-100.00,West,274,24.0,30.0,58,-99.99,,,-99.99,,2015-09-04 09:03:00,
2015-09-04 03:12:00,58.0,45.0,-100.00,West,274,21.0,26.0,62,-99.99,,,-99.99,,2015-09-04 09:12:00,
2015-09-04 03:23:00,58.0,45.0,-100.00,West,278,22.0,28.0,64,-99.99,,,-99.99,,2015-09-04 09:23:00,
2015-09-04 03:33:00,57.0,45.0,-100.00,West,278,22.0,29.0,66,-99.99,,,-99.99,,2015-09-04 09:33:00,
2015-09-04 03:43:00,56.0,45.0,-100.00,WNW,295,18.0,24.0,68,-99.99,,,-99.99,,2015-09-04 09:43:00,
2015-09-04 03:53:00,56.0,45.0,-100.00,WNW,298,15.0,20.0,67,-99.99,,,-99.99,,2015-09-04 09:53:00,
2015-09-04 04:03:00,55.0,45.0,-100.00,WNW,302,13.0,19.0,68,-99.99,,,-99.99,,2015-09-04 10:03:00,
2015-09-04 04:13:00,54.0,45.0,-100.00,WNW,291,12.0,17.0,71,-99.99,,,-99.99,,2015-09-04 10:13:00,
2015-09-04 04:23:00,55.0,45.0,-100.00,WNW,295,14.0,20.0,69,-99.99,,,-99.99,,2015-09-04 10:23:00,
2015-09-04 04:33:00,54.0,45.0,-100.00,West,260,14.0,18.0,71,-99.99,,,-99.99,,2015-09-04 10:33:00,
2015-09-04 04:43:00,54.0,45.0,-100.00,West,267,12.0,17.0,71,-99.99,,,-99.99,,2015-09-04 10:43:00,
2015-09-04 04:53:00,53.0,45.0,-100.00,West,272,9.0,12.0,72,-99.99,,,-99.99,,2015-09-04 10:53:00,
2015-09-04 05:03:00,53.0,44.0,-100.00,West,261,12.0,15.0,71,-99.99,,,-99.99,,2015-09-04 11:03:00,
2015-09-04 05:13:00,53.0,44.0,-100.00,West,260,13.0,17.0,71,-99.99,,,-99.99,,2015-09-04 11:13:00,
2015-09-04 05:23:00,52.0,44.0,-100.00,West,268,10.0,14.0,74,-99.99,,,-99.99,,2015-09-04 11:23:00,
2015-09-04 05:33:00,51.0,44.0,-100.00,West,272,11.0,13.0,77,-99.99,,,-99.99,,2015-09-04 11:33:00,
2015-09-04 05:43:00,51.0,44.0,-100.00,West,270,11.0,12.0,76,-99.99,,,-99.99,,2015-09-04 11:43:00,
2015-09-04 05:53:00,50.0,44.0,-100.00,West,275,11.0,13.0,77,-99.99,,,-99.99,,2015-09-04 11:53:00,
2015-09-04 06:03:00,51.0,43.0,-100.00,West,271,11.0,13.0,75,-99.99,,,-99.99,,2015-09-04 12:03:00,
2015-09-04 06:13:00,50.0,43.0,-100.00,West,275,10.0,12.0,78,-99.99,,,-99.99,,2015-09-04 12:13:00,
2015-09-04 06:23:00,50.0,43.0,-100.00,West,270,9.0,11.0,77,-99.99,,,-99.99,,2015-09-04 12:23:00,
2015-09-04 06:34:00,50.0,43.0,-100.00,West,277,11.0,12.0,78,-99.99,,,-99.99,,2015-09-04 12:34:00,
2015-09-04 06:44:00,50.0,43.0,-100.00,West,275,10.0,12.0,77,-99.99,,,-99.99,,2015-09-04 12:44:00,
2015-09-04 06:53:00,49.0,43.0,-100.00,West,280,9.0,11.0,79,-99.99,,,-99.99,,2015-09-04 12:53:00,
2015-09-04 07:03:00,49.0,43.0,-100.00,West,281,9.0,11.0,79,-99.99,,,-99.99,,2015-09-04 13:03:00,
2015-09-04 07:13:00,49.0,43.0,-100.00,WNW,285,9.0,11.0,80,-99.99,,,-99.99,,2015-09-04 13:13:00,
2015-09-04 07:23:00,50.0,43.0,-100.00,WNW,284,8.0,11.0,78,-99.99,,,-99.99,,2015-09-04 13:23:00,
2015-09-04 07:33:00,51.0,44.0,-100.00,WNW,289,9.0,11.0,77,-99.99,,,-99.99,,2015-09-04 13:33:00,
2015-09-04 07:43:00,51.0,44.0,-100.00,WNW,285,9.0,12.0,76,-99.99,,,-99.99,,2015-09-04 13:43:00,
2015-09-04 07:53:00,52.0,44.0,-100.00,WNW,292,9.0,11.0,76,-99.99,,,-99.99,,2015-09-04 13:53:00,
2015-09-04 08:03:00,52.0,44.0,-100.00,WNW,298,8.0,11.0,74,-99.99,,,-99.99,,2015-09-04 14:03:00,
2015-09-04 08:12:00,52.0,44.0,-100.00,WNW,288,7.0,9.0,73,-99.99,,,-99.99,,2015-09-04 14:12:00,
2015-09-04 08:23:00,53.0,44.0,-100.00,WNW,294,7.0,10.0,72,-99.99,,,-99.99,,2015-09-04 14:23:00,
2015-09-04 08:33:00,54.0,44.0,-100.00,NW,308,7.0,12.0,70,-99.99,,,-99.99,,2015-09-04 14:33:00,
2015-09-04 08:43:00,54.0,44.0,-100.00,NW,305,7.0,11.0,69,-99.99,,,-99.99,,2015-09-04 14:43:00,
2015-09-04 08:53:00,54.0,44.0,-100.00,NW,323,6.0,9.0,66,-99.99,,,-99.99,,2015-09-04 14:53:00,
2015-09-04 09:03:00,54.0,43.0,-100.00,NNW,333,6.0,13.0,66,-99.99,,,-99.99,,2015-09-04 15:03:00,
2015-09-04 09:12:00,55.0,43.0,-100.00,NNW,335,6.0,12.0,65,-99.99,,,-99.99,,2015-09-04 15:12:00,
2015-09-04 09:23:00,55.0,43.0,-100.00,NNW,333,6.0,11.0,65,-99.99,,,-99.99,,2015-09-04 15:23:00,
2015-09-04 09:33:00,56.0,43.0,-100.00,NW,320,6.0,12.0,63,-99.99,,,-99.99,,2015-09-04 15:33:00,
2015-09-04 09:43:00,56.0,43.0,-100.00,NNW,332,5.0,9.0,61,-99.99,,,-99.99,,2015-09-04 15:43:00,
2015-09-04 09:53:00,57.0,43.0,-100.00,NW,311,6.0,12.0,59,-99.99,,,-99.99,,2015-09-04 15:53:00,